Time;durP1;ratioP1;P1;durP2;ratioP2;P2;SDS_P1;SDS_P2;PMS_P1;PMS_P2;Temp;Humidity;BMP_temperature;BMP_pressure;BME280_temperature;BME280_humidity;BME280_pressure;Samples;Min_cycle;Max_cycle;Signal;HPM_P1;HPM_P2
2022/01/17 00:00:30;;;;;;;23.70;12.20;;;;;;;;;;5052408;28;20041;-62
2022/01/17 00:02:55;;;;;;;25.85;10.38;;;;;;;;;;5056580;28;20017;-62
2022/01/17 00:05:20;;;;;;;40.13;7.80;;;;;;;;;;5069851;28;20189;-61
2022/01/17 00:07:46;;;;;;;24.38;8.48;;;;;;;;;;5073146;28;20017;-62
2022/01/17 00:10:11;;;;;;;19.90;6.70;;;;;;;;;;5072102;28;20037;-61
2022/01/17 00:12:43;;;;;;;18.95;7.90;;;;;;;;;;5072845;28;20024;-60
2022/01/17 00:15:15;;;;;;;16.00;9.20;;;;;;;;;;5052003;28;20045;-61
2022/01/17 00:17:43;;;;;;;27.35;11.30;;;;;;;;;;5068691;28;20093;-61
2022/01/17 00:20:10;;;;;;;22.83;8.10;;;;;;;;;;5051470;28;20041;-61
2022/01/17 00:22:36;;;;;;;28.02;8.80;;;;;;;;;;5068638;28;20621;-60
2022/01/17 00:25:02;;;;;;;27.42;9.80;;;;;;;;;;5071824;28;20045;-61
2022/01/17 00:27:27;;;;;;;42.10;8.60;;;;;;;;;;5072864;28;20472;-60
2022/01/17 00:29:52;;;;;;;25.10;11.02;;;;;;;;;;5070904;28;20037;-59
2022/01/17 00:32:18;;;;;;;35.30;14.40;;;;;;;;;;5073040;28;20024;-60
2022/01/17 00:34:44;;;;;;;19.65;8.95;;;;;;;;;;5070507;28;20798;-60
2022/01/17 00:37:09;;;;;;;20.35;8.68;;;;;;;;;;5073141;28;20024;-60
2022/01/17 00:39:34;;;;;;;20.85;8.23;;;;;;;;;;5071069;28;20419;-60
2022/01/17 00:41:59;;;;;;;29.00;6.93;;;;;;;;;;5052768;28;20070;-59
2022/01/17 00:44:25;;;;;;;16.43;9.57;;;;;;;;;;5057122;28;20037;-60
2022/01/17 00:46:51;;;;;;;26.08;9.32;;;;;;;;;;5052440;28;20029;-60
2022/01/17 00:49:16;;;;;;;39.80;9.98;;;;;;;;;;5064384;28;20041;-60
2022/01/17 00:51:42;;;;;;;20.63;8.02;;;;;;;;;;5072796;28;20025;-60
2022/01/17 00:54:07;;;;;;;19.30;6.38;;;;;;;;;;5071121;28;20560;-60
2022/01/17 00:56:32;;;;;;;14.20;5.75;;;;;;;;;;5072449;28;20107;-60
2022/01/17 00:58:58;;;;;;;17.95;7.22;;;;;;;;;;5070590;28;20539;-61
2022/01/17 01:01:23;;;;;;;15.13;6.22;;;;;;;;;;5067692;28;20017;-61
2022/01/17 01:03:48;;;;;;;17.43;6.50;;;;;;;;;;5050506;28;20055;-60
2022/01/17 01:06:13;;;;;;;16.67;6.47;;;;;;;;;;5052440;28;20067;-60
2022/01/17 01:08:38;;;;;;;49.17;9.07;;;;;;;;;;5061167;28;20538;-61
2022/01/17 01:11:03;;;;;;;16.20;5.90;;;;;;;;;;5063449;28;21091;-60
2022/01/17 01:13:30;;;;;;;24.20;4.57;;;;;;;;;;5066364;28;20492;-61
2022/01/17 01:29:14;;;;;;;20.25;4.72;;;;;;;;;;5030569;28;20107;-60
2022/01/17 01:31:47;;;;;;;16.88;5.57;;;;;;;;;;5031631;28;20505;-61
2022/01/17 01:34:13;;;;;;;17.30;5.22;;;;;;;;;;5030479;28;20055;-60
2022/01/17 01:36:39;;;;;;;13.77;3.15;;;;;;;;;;5040427;28;20469;-61
2022/01/17 01:39:05;;;;;;;14.77;4.72;;;;;;;;;;5050612;28;20523;-61
2022/01/17 01:41:33;;;;;;;30.88;6.90;;;;;;;;;;5065691;28;20025;-61
2022/01/17 01:43:59;;;;;;;;;;;;;;;;;;5070947;28;20127;-60
2022/01/17 01:46:25;;;;;;;13.30;3.55;;;;;;;;;;5062790;28;20372;-60
2022/01/17 01:48:50;;;;;;;13.85;4.38;;;;;;;;;;5049387;28;20124;-60
2022/01/17 01:51:16;;;;;;;11.57;4.03;;;;;;;;;;5051575;28;20112;-61
2022/01/17 01:53:41;;;;;;;20.02;3.67;;;;;;;;;;5050136;28;20028;-60
2022/01/17 01:56:06;;;;;;;18.40;5.33;;;;;;;;;;5062620;28;20025;-60
2022/01/17 01:58:31;;;;;;;26.37;7.20;;;;;;;;;;5050314;28;20427;-61
2022/01/17 02:00:59;;;;;;;18.63;4.47;;;;;;;;;;5051157;28;20426;-61
2022/01/17 02:03:24;;;;;;;19.23;6.03;;;;;;;;;;5051058;28;20435;-60
2022/01/17 02:05:49;;;;;;;8.63;3.00;;;;;;;;;;5049570;28;20099;-61
2022/01/17 02:08:15;;;;;;;38.92;7.03;;;;;;;;;;5054729;28;20009;-61
2022/01/17 02:10:40;;;;;;;15.30;3.47;;;;;;;;;;5069280;28;20483;-61
2022/01/17 02:13:05;;;;;;;15.88;4.35;;;;;;;;;;5065342;28;20108;-60
2022/01/17 02:15:30;;;;;;;16.67;3.33;;;;;;;;;;5050045;28;20045;-60
2022/01/17 02:17:57;;;;;;;7.67;3.30;;;;;;;;;;5070520;28;20459;-60
2022/01/17 02:20:24;;;;;;;19.00;5.03;;;;;;;;;;5069411;28;20473;-60
2022/01/17 02:22:49;;;;;;;24.90;7.22;;;;;;;;;;5068689;28;20028;-60
2022/01/17 02:25:14;;;;;;;19.67;4.95;;;;;;;;;;5049219;28;20228;-60
2022/01/17 02:27:40;;;;;;;15.60;5.03;;;;;;;;;;5051677;28;20044;-61
2022/01/17 02:30:06;;;;;;;16.23;6.05;;;;;;;;;;5049177;28;20535;-61
2022/01/17 02:32:31;;;;;;;15.50;4.25;;;;;;;;;;5069173;28;20151;-61
2022/01/17 02:35:12;;;;;;;10.87;4.73;;;;;;;;;;5068656;28;20106;-61
2022/01/17 02:37:37;;;;;;;24.83;5.68;;;;;;;;;;5055409;28;20458;-61
2022/01/17 02:40:02;;;;;;;21.33;3.90;;;;;;;;;;5052558;28;20048;-61
2022/01/17 02:42:27;;;;;;;13.25;3.30;;;;;;;;;;5070693;28;20054;-61
2022/01/17 02:44:59;;;;;;;18.13;5.88;;;;;;;;;;5068790;28;20036;-61
2022/01/17 02:47:24;;;;;;;12.25;3.67;;;;;;;;;;5029332;28;20330;-61
2022/01/17 02:49:49;;;;;;;8.13;3.17;;;;;;;;;;5028967;28;20030;-60
2022/01/17 02:52:18;;;;;;;9.27;3.63;;;;;;;;;;5057868;28;20028;-61
2022/01/17 02:54:43;;;;;;;11.93;3.58;;;;;;;;;;5067829;28;20036;-61
2022/01/17 02:57:08;;;;;;;21.05;5.28;;;;;;;;;;5070531;28;20382;-61
2022/01/17 02:59:34;;;;;;;22.13;6.95;;;;;;;;;;5068840;28;20056;-61
2022/01/17 03:01:59;;;;;;;12.80;5.20;;;;;;;;;;5070122;28;20017;-61
2022/01/17 03:04:24;;;;;;;17.70;5.57;;;;;;;;;;5067395;28;20098;-60
2022/01/17 03:06:50;;;;;;;22.37;7.53;;;;;;;;;;5068648;28;20439;-60
2022/01/17 03:09:15;;;;;;;16.42;4.63;;;;;;;;;;5048498;28;20448;-60
2022/01/17 03:11:40;;;;;;;20.93;4.27;;;;;;;;;;5050237;28;20376;-60
2022/01/17 03:14:05;;;;;;;15.68;4.05;;;;;;;;;;5048757;28;20501;-60
2022/01/17 03:16:33;;;;;;;11.07;4.03;;;;;;;;;;5062462;28;20028;-59
2022/01/17 03:18:59;;;;;;;17.60;6.97;;;;;;;;;;5057898;28;20850;-60
2022/01/17 03:21:27;;;;;;;19.73;4.10;;;;;;;;;;5050293;28;20025;-59
2022/01/17 03:23:53;;;;;;;22.23;5.20;;;;;;;;;;5048729;28;20029;-60
2022/01/17 03:26:18;;;;;;;19.00;7.30;;;;;;;;;;5054594;28;20025;-61
2022/01/17 03:28:43;;;;;;;23.27;6.17;;;;;;;;;;5063401;28;20032;-60
2022/01/17 03:31:09;;;;;;;20.40;6.40;;;;;;;;;;5071877;28;20074;-59
2022/01/17 03:33:34;;;;;;;20.25;7.00;;;;;;;;;;5052556;28;20059;-60
2022/01/17 03:35:59;;;;;;;38.23;10.43;;;;;;;;;;5073101;28;20066;-60
2022/01/17 03:38:26;;;;;;;10.68;3.53;;;;;;;;;;5073387;28;20527;-60
2022/01/17 03:40:51;;;;;;;30.48;5.40;;;;;;;;;;5072400;28;20116;-60
2022/01/17 03:43:20;;;;;;;17.40;5.30;;;;;;;;;;5074289;28;20478;-60
2022/01/17 03:45:46;;;;;;;19.77;6.18;;;;;;;;;;5065367;28;20029;-60
2022/01/17 03:48:11;;;;;;;16.17;4.40;;;;;;;;;;5062748;28;20029;-61
2022/01/17 03:50:36;;;;;;;14.48;4.30;;;;;;;;;;5064322;28;20527;-60
2022/01/17 03:53:01;;;;;;;17.52;6.47;;;;;;;;;;5053453;28;20438;-60
2022/01/17 03:55:28;;;;;;;13.27;5.75;;;;;;;;;;5052066;28;20041;-60
2022/01/17 03:57:53;;;;;;;25.73;5.82;;;;;;;;;;5053761;28;20089;-60
2022/01/17 04:00:20;;;;;;;14.50;4.22;;;;;;;;;;5062400;28;20499;-60
2022/01/17 04:02:45;;;;;;;20.67;5.20;;;;;;;;;;5073409;28;20059;-60
2022/01/17 04:05:10;;;;;;;16.88;6.40;;;;;;;;;;5065333;28;20037;-60
2022/01/17 04:07:35;;;;;;;16.53;5.63;;;;;;;;;;5053021;28;20431;-60
2022/01/17 04:10:01;;;;;;;26.63;7.85;;;;;;;;;;5052006;28;20079;-59
2022/01/17 04:12:26;;;;;;;15.02;5.82;;;;;;;;;;5053612;28;20115;-59
2022/01/17 04:14:54;;;;;;;13.43;5.05;;;;;;;;;;5059046;28;20044;-59
2022/01/17 04:17:19;;;;;;;19.45;4.38;;;;;;;;;;5073340;28;20423;-60
2022/01/17 04:19:48;;;;;;;20.65;5.60;;;;;;;;;;5070925;28;20032;-60
2022/01/17 04:22:13;;;;;;;;;;;;;;;;;;5073321;28;20051;-60
2022/01/17 04:24:38;;;;;;;17.40;5.05;;;;;;;;;;5071223;28;19912;-59
2022/01/17 04:27:04;;;;;;;13.00;7.22;;;;;;;;;;5072316;28;20020;-59
2022/01/17 04:29:29;;;;;;;17.73;4.82;;;;;;;;;;5051383;28;20498;-59
2022/01/17 04:31:54;;;;;;;23.13;5.93;;;;;;;;;;5052468;28;20516;-59
2022/01/17 04:34:19;;;;;;;21.83;7.20;;;;;;;;;;5051711;28;20116;-59
2022/01/17 04:36:44;;;;;;;9.50;4.65;;;;;;;;;;5052231;28;20768;-60
2022/01/17 04:39:15;;;;;;;23.20;6.43;;;;;;;;;;5065393;28;20044;-60
2022/01/17 04:41:40;;;;;;;23.63;6.90;;;;;;;;;;5072363;28;20491;-61
2022/01/17 04:46:49;;;;;;;19.63;4.90;;;;;;;;;;5072303;28;20036;-61
2022/01/17 04:49:15;;;;;;;14.63;3.92;;;;;;;;;;5053635;28;20041;-61
2022/01/17 04:51:40;;;;;;;26.73;7.10;;;;;;;;;;5052674;28;20020;-60
2022/01/17 04:54:52;;;;;;;28.90;6.40;;;;;;;;;;5050907;28;20054;-60
2022/01/17 04:56:54;;;;;;;27.27;7.78;;;;;;;;;;5048258;28;20086;-60
2022/01/17 04:59:19;;;;;;;18.83;5.90;;;;;;;;;;5071069;28;20032;-60
2022/01/17 05:01:44;;;;;;;34.95;7.85;;;;;;;;;;5072301;28;20094;-60
2022/01/17 05:04:09;;;;;;;21.13;4.27;;;;;;;;;;5070341;28;20042;-61
2022/01/17 05:06:35;;;;;;;26.63;5.70;;;;;;;;;;5052233;28;20431;-61
2022/01/17 05:09:02;;;;;;;24.35;7.15;;;;;;;;;;5051606;28;20462;-60
2022/01/17 05:11:29;;;;;;;25.08;4.60;;;;;;;;;;5051529;28;20097;-56
2022/01/17 05:13:55;;;;;;;18.00;6.53;;;;;;;;;;5065390;28;20040;-56
2022/01/17 05:16:21;;;;;;;13.43;4.93;;;;;;;;;;5055915;28;20017;-57
2022/01/17 05:21:13;;;;;;;32.45;8.40;;;;;;;;;;5070850;28;20411;-57
2022/01/17 05:23:40;;;;;;;19.88;6.93;;;;;;;;;;5065310;28;20025;-57
2022/01/17 05:26:05;;;;;;;14.38;4.63;;;;;;;;;;5052226;28;20016;-56
2022/01/17 05:28:31;;;;;;;17.67;5.68;;;;;;;;;;5066491;28;20039;-56
2022/01/17 05:30:56;;;;;;;14.40;4.18;;;;;;;;;;5069982;28;20091;-57
2022/01/17 05:33:21;;;;;;;15.10;5.10;;;;;;;;;;5061953;28;20112;-56
2022/01/17 05:35:46;;;;;;;23.88;6.03;;;;;;;;;;5060688;28;21129;-57
2022/01/17 05:38:12;;;;;;;29.83;9.43;;;;;;;;;;5055219;28;20391;-57
2022/01/17 05:40:37;;;;;;;18.95;6.60;;;;;;;;;;5050161;28;20063;-57
2022/01/17 05:43:02;;;;;;;20.60;4.53;;;;;;;;;;5051680;28;20554;-56
2022/01/17 05:45:27;;;;;;;20.47;4.80;;;;;;;;;;5049723;28;20456;-57
2022/01/17 05:47:52;;;;;;;49.57;11.10;;;;;;;;;;5054166;28;20468;-57
2022/01/17 05:50:18;;;;;;;16.70;4.03;;;;;;;;;;5053059;28;20532;-56
2022/01/17 05:52:43;;;;;;;20.80;5.00;;;;;;;;;;5050907;28;20420;-56
2022/01/17 05:55:10;;;;;;;22.05;5.47;;;;;;;;;;5050090;28;20124;-56
2022/01/17 05:57:35;;;;;;;21.65;6.95;;;;;;;;;;5050355;28;20096;-56
2022/01/17 06:00:00;;;;;;;22.42;6.43;;;;;;;;;;5049763;28;20579;-56
2022/01/17 06:02:26;;;;;;;19.27;5.47;;;;;;;;;;5051400;28;20063;-56
2022/01/17 06:04:52;;;;;;;20.48;6.85;;;;;;;;;;5049832;28;20037;-56
2022/01/17 06:07:17;;;;;;;15.55;4.88;;;;;;;;;;5050815;28;20020;-56
2022/01/17 06:09:43;;;;;;;21.08;6.55;;;;;;;;;;5049711;28;20443;-56
2022/01/17 06:12:08;;;;;;;16.48;4.97;;;;;;;;;;5051572;28;20559;-56
2022/01/17 06:14:34;;;;;;;10.30;4.45;;;;;;;;;;5049194;28;20536;-56
2022/01/17 06:16:59;;;;;;;23.65;5.95;;;;;;;;;;5051365;28;20017;-56
2022/01/17 06:19:24;;;;;;;17.55;6.15;;;;;;;;;;5049556;28;20507;-56
2022/01/17 06:21:49;;;;;;;20.52;4.35;;;;;;;;;;5050385;28;20028;-56
2022/01/17 06:24:14;;;;;;;23.40;4.37;;;;;;;;;;5049871;28;20068;-56
2022/01/17 06:26:41;;;;;;;18.92;4.93;;;;;;;;;;5050743;28;20491;-56
2022/01/17 06:29:07;;;;;;;21.55;6.03;;;;;;;;;;5049064;28;20144;-56
2022/01/17 06:31:32;;;;;;;32.60;6.72;;;;;;;;;;5050717;28;20072;-56
2022/01/17 06:33:57;;;;;;;18.90;4.55;;;;;;;;;;5048923;28;20033;-56
2022/01/17 06:36:23;;;;;;;16.50;4.68;;;;;;;;;;5049830;28;20435;-56
2022/01/17 06:38:49;;;;;;;17.23;4.80;;;;;;;;;;5048921;28;20067;-56
2022/01/17 06:41:15;;;;;;;12.93;4.68;;;;;;;;;;5050555;28;20066;-57
2022/01/17 06:43:40;;;;;;;19.83;5.28;;;;;;;;;;5048116;28;20116;-56
2022/01/17 06:46:05;;;;;;;26.05;7.68;;;;;;;;;;5050253;28;20013;-57
2022/01/17 06:48:30;;;;;;;19.38;8.55;;;;;;;;;;5050212;28;20473;-56
2022/01/17 06:50:55;;;;;;;28.35;6.15;;;;;;;;;;5048133;28;20094;-56
2022/01/17 06:53:20;;;;;;;21.70;6.23;;;;;;;;;;5050197;28;20044;-57
2022/01/17 06:55:45;;;;;;;45.40;11.82;;;;;;;;;;5048260;28;20520;-57
2022/01/17 06:58:11;;;;;;;21.73;6.38;;;;;;;;;;5049377;28;20112;-57
2022/01/17 07:00:36;;;;;;;16.48;6.38;;;;;;;;;;5048472;28;20057;-57
2022/01/17 07:03:01;;;;;;;28.13;7.63;;;;;;;;;;5050012;28;20381;-56
2022/01/17 07:05:26;;;;;;;20.15;5.60;;;;;;;;;;5048199;28;20468;-57
2022/01/17 07:07:51;;;;;;;21.35;7.07;;;;;;;;;;5049680;28;20448;-57
2022/01/17 07:10:17;;;;;;;14.93;6.72;;;;;;;;;;5048322;28;20050;-57
2022/01/17 07:12:42;;;;;;;16.40;6.33;;;;;;;;;;5049503;28;20404;-56
2022/01/17 07:15:08;;;;;;;17.97;5.43;;;;;;;;;;5048681;28;20041;-56
2022/01/17 07:17:33;;;;;;;29.80;7.32;;;;;;;;;;5049985;28;20427;-57
2022/01/17 07:19:59;;;;;;;18.27;6.32;;;;;;;;;;5048499;28;20108;-57
2022/01/17 07:22:24;;;;;;;17.80;6.50;;;;;;;;;;5050358;28;20372;-57
2022/01/17 07:24:49;;;;;;;22.77;8.60;;;;;;;;;;5048746;28;20063;-57
2022/01/17 07:27:14;;;;;;;20.60;8.57;;;;;;;;;;5050220;28;20858;-56
2022/01/17 07:29:40;;;;;;;20.30;8.65;;;;;;;;;;5048447;28;20459;-56
2022/01/17 07:32:06;;;;;;;29.77;7.93;;;;;;;;;;5049755;28;20059;-57
2022/01/17 07:34:31;;;;;;;28.02;8.27;;;;;;;;;;5048683;28;20443;-56
2022/01/17 07:36:57;;;;;;;25.80;9.00;;;;;;;;;;5049806;28;20017;-56
2022/01/17 07:39:22;;;;;;;19.08;7.90;;;;;;;;;;5048908;28;20467;-56
2022/01/17 07:41:47;;;;;;;31.50;9.45;;;;;;;;;;5049841;28;20017;-56
2022/01/17 07:44:19;;;;;;;22.50;11.20;;;;;;;;;;5048741;28;20033;-56
2022/01/17 07:46:50;;;;;;;19.48;8.55;;;;;;;;;;5049757;28;20496;-56
2022/01/17 07:49:21;;;;;;;35.83;10.95;;;;;;;;;;5048550;28;20049;-56
2022/01/17 07:51:48;;;;;;;22.00;10.48;;;;;;;;;;5049806;28;20271;-56
2022/01/17 07:54:15;;;;;;;26.08;9.32;;;;;;;;;;5048382;28;20392;-56
2022/01/17 07:56:41;;;;;;;27.08;9.43;;;;;;;;;;5050107;28;20376;-56
2022/01/17 07:59:08;;;;;;;23.25;10.07;;;;;;;;;;5048369;28;20124;-56
2022/01/17 08:01:34;;;;;;;28.70;12.07;;;;;;;;;;5049555;28;20013;-56
2022/01/17 08:03:59;;;;;;;25.55;10.93;;;;;;;;;;5048532;28;20033;-56
2022/01/17 08:06:25;;;;;;;27.02;12.25;;;;;;;;;;5049820;28;20467;-56
2022/01/17 08:08:50;;;;;;;26.77;12.45;;;;;;;;;;5048279;28;20028;-56
2022/01/17 08:11:15;;;;;;;33.75;13.10;;;;;;;;;;5052281;28;20017;-56
2022/01/17 08:13:41;;;;;;;31.52;13.13;;;;;;;;;;5051657;28;20021;-56
2022/01/17 08:16:06;;;;;;;28.95;11.80;;;;;;;;;;5053465;28;20032;-56
2022/01/17 08:18:31;;;;;;;27.60;13.07;;;;;;;;;;5053614;28;20029;-56
2022/01/17 08:20:56;;;;;;;41.38;14.75;;;;;;;;;;5051295;28;20029;-56
2022/01/17 08:23:21;;;;;;;23.83;13.07;;;;;;;;;;5053344;28;20017;-56
2022/01/17 08:25:47;;;;;;;26.20;14.40;;;;;;;;;;5051658;28;20129;-56
2022/01/17 08:28:13;;;;;;;32.07;13.63;;;;;;;;;;5053084;28;20025;-56
2022/01/17 08:30:38;;;;;;;43.47;15.18;;;;;;;;;;5051333;28;20060;-56
2022/01/17 08:33:03;;;;;;;34.90;15.10;;;;;;;;;;5053149;28;20329;-56
2022/01/17 08:35:29;;;;;;;28.33;14.10;;;;;;;;;;5051303;28;20474;-56
2022/01/17 08:37:54;;;;;;;34.67;16.70;;;;;;;;;;5052775;28;20422;-56
2022/01/17 08:40:19;;;;;;;44.77;18.30;;;;;;;;;;5051664;28;20040;-56
2022/01/17 08:42:49;;;;;;;27.58;15.98;;;;;;;;;;5052653;28;20470;-56
2022/01/17 08:45:14;;;;;;;46.80;22.70;;;;;;;;;;5051292;28;20044;-56
2022/01/17 08:47:40;;;;;;;39.80;19.27;;;;;;;;;;5052820;28;20104;-56
2022/01/17 08:50:06;;;;;;;37.03;16.85;;;;;;;;;;5051160;28;20071;-56
2022/01/17 08:52:31;;;;;;;39.20;16.38;;;;;;;;;;5052726;28;20021;-56
2022/01/17 08:54:57;;;;;;;35.78;18.80;;;;;;;;;;5051115;28;20044;-56
2022/01/17 08:57:22;;;;;;;42.38;19.02;;;;;;;;;;5052433;28;20417;-56
2022/01/17 08:59:47;;;;;;;49.15;21.02;;;;;;;;;;5051258;28;20052;-56
2022/01/17 09:02:13;;;;;;;38.13;19.30;;;;;;;;;;5052505;28;20021;-56
2022/01/17 09:04:41;;;;;;;48.33;20.50;;;;;;;;;;5050612;28;20045;-56
2022/01/17 09:07:09;;;;;;;34.55;19.25;;;;;;;;;;5050204;28;20142;-56
2022/01/17 09:09:34;;;;;;;;;;;;;;;;;;5030469;28;20043;-56
2022/01/17 09:12:00;;;;;;;33.30;22.35;;;;;;;;;;5031913;28;19905;-56
2022/01/17 09:14:27;;;;;;;45.85;21.30;;;;;;;;;;5049090;28;20037;-56
2022/01/17 09:16:52;;;;;;;40.47;20.58;;;;;;;;;;5052087;28;20024;-56
2022/01/17 09:19:17;;;;;;;38.97;18.63;;;;;;;;;;5050540;28;20032;-56
2022/01/17 09:21:42;;;;;;;39.13;17.87;;;;;;;;;;5050904;28;20021;-56
2022/01/17 09:24:07;;;;;;;42.90;18.85;;;;;;;;;;5050756;28;20849;-56
2022/01/17 09:26:33;;;;;;;41.23;21.20;;;;;;;;;;5051610;28;20048;-56
2022/01/17 09:28:58;;;;;;;52.70;20.57;;;;;;;;;;5050573;28;20530;-56
2022/01/17 09:31:23;;;;;;;38.93;18.97;;;;;;;;;;5048921;28;20044;-56
2022/01/17 09:33:48;;;;;;;47.33;23.90;;;;;;;;;;5049197;28;20191;-56
2022/01/17 09:36:13;;;;;;;44.03;21.85;;;;;;;;;;5051840;28;20020;-56
2022/01/17 09:38:39;;;;;;;40.60;19.42;;;;;;;;;;5050300;28;20375;-56
2022/01/17 09:41:05;;;;;;;47.50;21.20;;;;;;;;;;5051500;28;20013;-56
2022/01/17 09:43:30;;;;;;;38.35;19.67;;;;;;;;;;5051999;28;20104;-56
2022/01/17 09:45:56;;;;;;;37.70;18.05;;;;;;;;;;5049899;28;20037;-56
2022/01/17 09:48:24;;;;;;;46.35;18.17;;;;;;;;;;5050886;28;20029;-56
2022/01/17 09:51:05;;;;;;;46.10;18.50;;;;;;;;;;5049926;28;20072;-56
2022/01/17 09:53:34;;;;;;;38.08;20.02;;;;;;;;;;5051930;28;20032;-56
2022/01/17 09:56:02;;;;;;;40.67;17.20;;;;;;;;;;5049399;28;20033;-56
2022/01/17 09:58:28;;;;;;;37.33;17.58;;;;;;;;;;5051393;28;20017;-56
2022/01/17 10:00:54;;;;;;;33.03;16.00;;;;;;;;;;5049688;28;20037;-56
2022/01/17 10:03:21;;;;;;;42.92;19.23;;;;;;;;;;5051325;28;20060;-56
2022/01/17 10:05:46;;;;;;;36.60;15.32;;;;;;;;;;5049725;28;20086;-56
2022/01/17 10:08:15;;;;;;;45.30;14.30;;;;;;;;;;5051620;28;20539;-56
2022/01/17 10:10:43;;;;;;;45.42;13.60;;;;;;;;;;5049017;28;20033;-56
2022/01/17 10:13:10;;;;;;;43.78;12.75;;;;;;;;;;5051415;28;20029;-56
2022/01/17 10:15:46;;;;;;;31.27;11.88;;;;;;;;;;5049098;28;20036;-56
2022/01/17 10:18:48;;;;;;;34.83;11.77;;;;;;;;;;5050694;28;20495;-56
2022/01/17 10:21:19;;;;;;;29.63;10.57;;;;;;;;;;4987883;28;20546;-56
2022/01/17 10:29:32;;;;;;;38.00;13.80;;;;;;;;;;5049704;28;20033;-56
2022/01/17 10:37:13;;;;;;;38.63;15.05;;;;;;;;;;5051021;28;20043;-57
2022/01/17 10:39:54;;;;;;;39.90;10.07;;;;;;;;;;5049435;28;20500;-56
2022/01/17 10:42:27;;;;;;;27.52;9.75;;;;;;;;;;5050644;28;20016;-56
2022/01/17 10:44:52;;;;;;;44.10;10.00;;;;;;;;;;5049141;28;20040;-56
2022/01/17 10:47:25;;;;;;;39.67;7.90;;;;;;;;;;5050431;28;20031;-56
2022/01/17 10:49:51;;;;;;;29.13;10.45;;;;;;;;;;5048971;28;20128;-56
2022/01/17 10:52:30;;;;;;;41.50;10.55;;;;;;;;;;5050819;28;20028;-56
2022/01/17 10:54:57;;;;;;;27.10;7.18;;;;;;;;;;5048474;28;20047;-57
2022/01/17 10:57:22;;;;;;;35.55;8.32;;;;;;;;;;5050658;28;20029;-56
2022/01/17 10:59:51;;;;;;;35.10;7.78;;;;;;;;;;5044485;28;20538;-56
2022/01/17 11:02:16;;;;;;;;;;;;;;;;;;5050629;28;20431;-56
2022/01/17 11:04:41;;;;;;;40.23;8.13;;;;;;;;;;5049055;28;19913;-56
2022/01/17 11:07:07;;;;;;;39.47;9.00;;;;;;;;;;5065114;28;20028;-56
2022/01/17 11:09:43;;;;;;;47.85;10.32;;;;;;;;;;5066892;28;20040;-56
2022/01/17 11:12:09;;;;;;;37.80;9.13;;;;;;;;;;5070291;28;20017;-56
2022/01/17 11:14:38;;;;;;;39.33;8.32;;;;;;;;;;5068791;28;20033;-56
2022/01/17 11:17:03;;;;;;;;;;;;;;;;;;5070707;28;20119;-56
2022/01/17 11:22:12;;;;;;;38.60;7.97;;;;;;;;;;5051519;28;20052;-56
2022/01/17 11:24:37;;;;;;;39.93;9.67;;;;;;;;;;5048249;28;20033;-57
2022/01/17 11:27:03;;;;;;;30.45;8.73;;;;;;;;;;5050180;28;20787;-56
2022/01/17 11:29:29;;;;;;;34.97;7.72;;;;;;;;;;5065334;28;20071;-57
2022/01/17 11:31:54;;;;;;;29.20;6.60;;;;;;;;;;5069616;28;20083;-56
2022/01/17 11:34:19;;;;;;;32.73;8.80;;;;;;;;;;5068588;28;20094;-56
2022/01/17 11:36:45;;;;;;;45.38;8.18;;;;;;;;;;5069913;28;20104;-56
2022/01/17 11:39:15;;;;;;;48.10;13.35;;;;;;;;;;5068392;28;20115;-56
2022/01/17 11:41:47;;;;;;;44.13;8.63;;;;;;;;;;5070043;28;20112;-56
2022/01/17 11:44:12;;;;;;;24.77;9.68;;;;;;;;;;5068559;28;20051;-56
2022/01/17 11:46:51;;;;;;;39.72;11.80;;;;;;;;;;5072943;28;20388;-57
2022/01/17 11:49:24;;;;;;;38.58;9.75;;;;;;;;;;5072655;28;20124;-57
2022/01/17 11:51:49;;;;;;;41.20;8.32;;;;;;;;;;5073861;28;20016;-56
2022/01/17 11:54:17;;;;;;;39.33;7.43;;;;;;;;;;5072090;28;20467;-57
2022/01/17 11:56:51;;;;;;;36.88;7.43;;;;;;;;;;5073774;28;20449;-56
2022/01/17 11:59:23;;;;;;;37.67;8.35;;;;;;;;;;5072577;28;20037;-56
2022/01/17 12:02:07;;;;;;;29.98;10.50;;;;;;;;;;5073153;28;20023;-56
2022/01/17 12:04:32;;;;;;;45.45;10.75;;;;;;;;;;5072368;28;20047;-56
2022/01/17 12:07:00;;;;;;;58.17;10.63;;;;;;;;;;5073488;28;20095;-56
2022/01/17 12:09:26;;;;;;;34.33;9.00;;;;;;;;;;5071732;28;20044;-56
2022/01/17 12:12:04;;;;;;;51.03;12.35;;;;;;;;;;5073268;28;20026;-56
2022/01/17 12:14:30;;;;;;;50.67;13.07;;;;;;;;;;5072053;28;20043;-56
2022/01/17 12:17:15;;;;;;;42.05;9.57;;;;;;;;;;5073176;28;20517;-57
2022/01/17 12:20:21;;;;;;;36.08;7.43;;;;;;;;;;5060808;28;20029;-56
2022/01/17 12:22:46;;;;;;;47.20;10.32;;;;;;;;;;5010873;28;20076;-56
2022/01/17 12:25:24;;;;;;;39.90;8.40;;;;;;;;;;5007065;28;20034;-57
2022/01/17 12:27:50;;;;;;;38.13;14.02;;;;;;;;;;5025526;28;20037;-57
2022/01/17 12:30:15;;;;;;;33.72;10.27;;;;;;;;;;5051741;28;20064;-61
2022/01/17 12:32:45;;;;;;;49.53;10.10;;;;;;;;;;5052751;28;20045;-56
2022/01/17 12:35:17;;;;;;;28.85;8.32;;;;;;;;;;5051526;28;20589;-56
2022/01/17 12:37:47;;;;;;;41.85;10.45;;;;;;;;;;5052929;28;20631;-56
2022/01/17 12:40:29;;;;;;;48.15;10.48;;;;;;;;;;5046978;28;20118;-57
2022/01/17 12:43:03;;;;;;;37.50;8.70;;;;;;;;;;5052331;28;20014;-57
2022/01/17 12:45:28;;;;;;;42.20;9.25;;;;;;;;;;5051609;28;20037;-56
2022/01/17 12:47:54;;;;;;;34.63;11.63;;;;;;;;;;5052868;28;20483;-56
2022/01/17 12:50:20;;;;;;;39.85;9.02;;;;;;;;;;5051491;28;20043;-56
2022/01/17 12:52:48;;;;;;;33.28;10.18;;;;;;;;;;5052690;28;20033;-57
2022/01/17 12:55:14;;;;;;;43.17;10.40;;;;;;;;;;5050937;28;20033;-57
2022/01/17 12:57:40;;;;;;;67.60;11.57;;;;;;;;;;5052470;28;20067;-56
2022/01/17 13:00:08;;;;;;;50.65;11.45;;;;;;;;;;5051389;28;20443;-56
2022/01/17 13:02:42;;;;;;;45.77;11.13;;;;;;;;;;5052176;28;20024;-56
2022/01/17 13:05:07;;;;;;;37.65;10.18;;;;;;;;;;5051323;28;20579;-56
2022/01/17 13:07:32;;;;;;;55.80;12.18;;;;;;;;;;5052549;28;20052;-56
2022/01/17 13:09:58;;;;;;;45.38;9.05;;;;;;;;;;5050593;28;20033;-56
2022/01/17 13:12:23;;;;;;;48.28;12.70;;;;;;;;;;5052678;28;20128;-56
2022/01/17 13:14:55;;;;;;;42.08;13.82;;;;;;;;;;5050546;28;20502;-56
2022/01/17 13:17:20;;;;;;;32.35;7.00;;;;;;;;;;5052253;28;20013;-56
2022/01/17 13:19:45;;;;;;;42.95;10.45;;;;;;;;;;5050823;28;20392;-56
2022/01/17 13:22:10;;;;;;;56.80;9.55;;;;;;;;;;5052129;28;20063;-56
2022/01/17 13:24:36;;;;;;;49.35;11.40;;;;;;;;;;5050417;28;20037;-56
2022/01/17 13:27:09;;;;;;;51.30;10.85;;;;;;;;;;5052350;28;20029;-56
2022/01/17 13:29:42;;;;;;;49.25;11.75;;;;;;;;;;5050603;28;20037;-56
2022/01/17 13:32:08;;;;;;;33.65;6.30;;;;;;;;;;5051647;28;20419;-56
2022/01/17 13:34:34;;;;;;;48.85;12.65;;;;;;;;;;5050495;28;20098;-57
2022/01/17 13:37:04;;;;;;;48.63;13.00;;;;;;;;;;5052099;28;20088;-57
2022/01/17 13:39:29;;;;;;;33.25;11.10;;;;;;;;;;5050368;28;20273;-57
2022/01/17 13:41:58;;;;;;;34.83;8.90;;;;;;;;;;5051588;28;20502;-57
2022/01/17 13:44:24;;;;;;;31.20;7.65;;;;;;;;;;5050248;28;20036;-56
2022/01/17 13:46:55;;;;;;;33.67;11.07;;;;;;;;;;5051487;28;20032;-56
2022/01/17 13:49:20;;;;;;;47.63;9.30;;;;;;;;;;5050389;28;20120;-56
2022/01/17 13:51:46;;;;;;;35.58;7.28;;;;;;;;;;5051460;28;20439;-56
2022/01/17 13:54:11;;;;;;;46.42;10.35;;;;;;;;;;5049863;28;20548;-56
2022/01/17 13:56:37;;;;;;;35.67;10.18;;;;;;;;;;5051617;28;20070;-56
2022/01/17 13:59:03;;;;;;;47.55;10.40;;;;;;;;;;5050350;28;20029;-56
2022/01/17 14:01:33;;;;;;;50.03;10.80;;;;;;;;;;5051138;28;20024;-56
2022/01/17 14:04:00;;;;;;;42.78;11.32;;;;;;;;;;5050253;28;20035;-56
2022/01/17 14:06:27;;;;;;;40.03;9.50;;;;;;;;;;5051682;28;20017;-56
2022/01/17 14:08:57;;;;;;;43.63;10.82;;;;;;;;;;5048810;28;20029;-56
2022/01/17 14:11:24;;;;;;;58.53;14.40;;;;;;;;;;5051322;28;20067;-56
2022/01/17 14:13:52;;;;;;;39.88;12.65;;;;;;;;;;5049731;28;20487;-56
2022/01/17 14:16:17;;;;;;;65.90;15.77;;;;;;;;;;5051284;28;20029;-56
2022/01/17 14:18:43;;;;;;;42.77;12.50;;;;;;;;;;5049786;28;20518;-56
2022/01/17 14:21:19;;;;;;;59.45;12.48;;;;;;;;;;5050828;28;20469;-56
2022/01/17 14:23:44;;;;;;;41.67;10.30;;;;;;;;;;5049288;28;20461;-56
2022/01/17 14:26:09;;;;;;;41.38;9.95;;;;;;;;;;5051047;28;20064;-56
2022/01/17 14:28:35;;;;;;;51.63;10.95;;;;;;;;;;5046307;28;20024;-56
2022/01/17 14:31:12;;;;;;;47.97;12.85;;;;;;;;;;5050637;28;20099;-56
2022/01/17 14:33:37;;;;;;;54.28;12.07;;;;;;;;;;5048896;28;20021;-56
2022/01/17 14:36:02;;;;;;;39.13;9.65;;;;;;;;;;5050640;28;20035;-57
2022/01/17 14:38:27;;;;;;;49.83;11.95;;;;;;;;;;5050401;28;20027;-56
2022/01/17 14:40:52;;;;;;;45.90;11.98;;;;;;;;;;5048897;28;20128;-56
2022/01/17 14:43:17;;;;;;;65.32;14.48;;;;;;;;;;5050595;28;20468;-57
2022/01/17 14:45:49;;;;;;;39.90;11.80;;;;;;;;;;5048452;28;20029;-56
2022/01/17 14:48:14;;;;;;;49.70;13.80;;;;;;;;;;5050827;28;20435;-56
2022/01/17 14:50:40;;;;;;;38.85;11.50;;;;;;;;;;5048781;28;20033;-56
2022/01/17 14:53:12;;;;;;;47.03;11.77;;;;;;;;;;5050466;28;20070;-56
2022/01/17 15:00:52;;;;;;;57.95;12.90;;;;;;;;;;5048581;28;20087;-57